createdAt,value
2017-08-08T00:00:22.480Z,22.00
2017-08-08T00:02:54.763Z,22.80
2017-08-08T00:05:24.107Z,22.70
2017-08-08T00:07:53.694Z,22.80
2017-08-08T00:10:23.131Z,23.10
2017-08-08T00:12:52.495Z,22.40
2017-08-08T00:15:21.707Z,22.50
2017-08-08T00:17:51.592Z,23.00
2017-08-08T00:20:23.912Z,22.30
2017-08-08T00:22:54.109Z,22.20
2017-08-08T00:25:23.478Z,22.40
2017-08-08T00:27:52.826Z,21.70
2017-08-08T00:30:25.396Z,21.70
2017-08-08T00:32:54.832Z,22.00
2017-08-08T00:35:25.194Z,21.90
2017-08-08T00:37:54.777Z,22.30
2017-08-08T00:40:24.008Z,22.90
2017-08-08T00:42:53.619Z,23.10
2017-08-08T00:45:23.639Z,23.10
2017-08-08T00:47:54.927Z,23.40
2017-08-08T00:50:24.213Z,23.30
2017-08-08T00:52:53.461Z,24.00
2017-08-08T00:55:22.908Z,23.80
2017-08-08T00:57:52.725Z,24.00
2017-08-08T01:00:22.056Z,24.20
2017-08-08T01:02:58.920Z,24.60
2017-08-08T01:05:28.066Z,24.40
2017-08-08T01:07:58.180Z,24.10
2017-08-08T01:10:27.663Z,24.80
2017-08-08T01:12:57.108Z,24.80
2017-08-08T01:15:26.476Z,25.00
2017-08-08T01:17:55.922Z,24.70
2017-08-08T01:20:25.893Z,25.40
2017-08-08T01:22:55.400Z,25.40
2017-08-08T01:25:24.680Z,25.90
2017-08-08T01:27:53.973Z,25.90
2017-08-08T01:30:23.305Z,26.20
2017-08-08T01:32:53.289Z,26.30
2017-08-08T01:35:22.424Z,26.90
2017-08-08T01:37:52.553Z,27.20
2017-08-08T01:40:22.011Z,27.30
2017-08-08T01:42:51.219Z,27.20
2017-08-08T01:45:20.666Z,27.40
2017-08-08T01:47:50.285Z,27.10
2017-08-08T01:50:21.358Z,27.50
2017-08-08T01:52:50.414Z,27.60
2017-08-08T01:55:19.523Z,27.70
2017-08-08T01:57:48.728Z,27.60
2017-08-08T02:00:18.029Z,28.30
2017-08-08T02:02:47.233Z,27.90
2017-08-08T02:05:16.900Z,28.30
2017-08-08T02:07:47.528Z,28.90
2017-08-08T02:10:16.855Z,29.30
2017-08-08T02:12:46.088Z,29.00
2017-08-08T02:15:17.190Z,29.20
2017-08-08T02:17:47.492Z,29.70
2017-08-08T02:20:16.920Z,29.80
2017-08-08T02:22:46.737Z,30.00
2017-08-08T02:25:16.334Z,30.70
2017-08-08T02:27:45.544Z,31.10
2017-08-08T02:30:15.047Z,31.60
2017-08-08T02:32:43.815Z,32.50
2017-08-08T02:35:13.247Z,32.30
2017-08-08T02:37:42.538Z,32.70
2017-08-08T02:40:11.735Z,32.40
2017-08-08T02:42:41.481Z,32.40
2017-08-08T02:45:12.224Z,32.80
2017-08-08T02:47:48.930Z,32.70
2017-08-08T02:50:18.496Z,32.70
2017-08-08T02:52:49.378Z,32.90
2017-08-08T02:55:20.229Z,33.10
2017-08-08T02:57:50.299Z,33.40
2017-08-08T03:00:20.135Z,33.30
2017-08-08T03:02:50.088Z,33.40
2017-08-08T03:05:19.626Z,33.40
2017-08-08T03:07:49.021Z,34.10
2017-08-08T03:10:18.109Z,34.10
2017-08-08T03:12:48.112Z,34.70
2017-08-08T03:15:17.937Z,34.90
2017-08-08T03:17:47.514Z,35.00
2017-08-08T03:20:17.309Z,34.80
2017-08-08T03:22:46.856Z,35.40
2017-08-08T03:25:17.844Z,35.60
2017-08-08T03:27:49.036Z,36.10
2017-08-08T03:30:18.467Z,36.60
2017-08-08T03:32:48.095Z,36.70
2017-08-08T03:35:19.056Z,36.70
2017-08-08T03:37:48.132Z,37.50
2017-08-08T03:40:19.497Z,38.00
2017-08-08T03:42:54.518Z,37.90
2017-08-08T03:45:24.715Z,38.00
2017-08-08T03:47:54.712Z,38.00
2017-08-08T03:50:28.811Z,38.50
2017-08-08T03:52:58.632Z,38.60
2017-08-08T03:55:27.981Z,39.20
2017-08-08T03:57:57.181Z,39.20
2017-08-08T04:00:26.536Z,39.80
2017-08-08T04:02:58.920Z,40.00
2017-08-08T04:05:28.226Z,40.60
2017-08-08T04:07:57.657Z,41.00
2017-08-08T04:10:27.331Z,41.30
2017-08-08T04:12:59.372Z,41.30
2017-08-08T04:15:28.700Z,41.50
2017-08-08T04:17:57.951Z,42.00
2017-08-08T04:20:29.279Z,42.30
2017-08-08T04:23:00.154Z,42.30
2017-08-08T04:25:34.302Z,42.60
2017-08-08T04:28:05.716Z,42.80
2017-08-08T04:30:35.138Z,43.10
2017-08-08T04:33:04.407Z,43.60
2017-08-08T04:35:33.889Z,43.90
2017-08-08T04:38:02.966Z,44.00
2017-08-08T04:40:32.312Z,43.80
2017-08-08T04:43:01.665Z,44.20
2017-08-08T04:45:31.123Z,44.50
2017-08-08T04:48:00.318Z,45.00
2017-08-08T04:50:33.244Z,45.40
2017-08-08T04:53:06.553Z,45.30
2017-08-08T04:55:36.001Z,45.40
2017-08-08T04:58:05.020Z,46.30
2017-08-08T05:00:41.042Z,46.30
2017-08-08T05:03:12.448Z,46.70
2017-08-08T05:05:43.397Z,47.20
2017-08-08T05:08:13.709Z,47.60
2017-08-08T05:10:42.965Z,48.10
2017-08-08T05:13:12.387Z,48.50
2017-08-08T05:15:41.815Z,48.80
2017-08-08T05:18:11.060Z,48.60
2017-08-08T05:20:40.334Z,48.90
2017-08-08T05:23:13.185Z,49.20
2017-08-08T05:25:42.853Z,49.10
2017-08-08T05:28:12.278Z,49.40
2017-08-08T05:30:41.481Z,49.80
2017-08-08T05:33:14.201Z,50.00
2017-08-08T05:35:43.250Z,50.20
2017-08-08T05:38:13.071Z,50.50
2017-08-08T05:40:42.367Z,50.50
2017-08-08T05:43:12.601Z,50.40
2017-08-08T05:45:42.098Z,50.60
2017-08-08T05:48:11.475Z,50.50
2017-08-08T05:50:40.848Z,50.60
2017-08-08T05:53:12.103Z,50.80
2017-08-08T05:55:41.561Z,51.50
2017-08-08T05:58:13.134Z,51.90
2017-08-08T06:00:45.315Z,52.00
2017-08-08T06:03:15.780Z,52.10
2017-08-08T06:05:50.030Z,52.00
2017-08-08T06:08:19.609Z,52.30
2017-08-08T06:10:49.533Z,52.80
2017-08-08T06:13:18.869Z,53.00
2017-08-08T06:15:48.600Z,53.10
2017-08-08T06:18:17.903Z,53.20
2017-08-08T06:20:47.128Z,53.40
2017-08-08T06:23:17.639Z,53.90
2017-08-08T06:25:47.089Z,54.00
2017-08-08T06:28:16.716Z,54.00
2017-08-08T06:30:46.457Z,54.00
2017-08-08T06:33:16.003Z,54.50
2017-08-08T06:35:45.591Z,54.70
2017-08-08T06:38:15.333Z,54.50
2017-08-08T06:40:44.735Z,54.90
2017-08-08T06:43:14.071Z,55.20
2017-08-08T06:45:44.464Z,55.50
2017-08-08T06:48:13.760Z,55.80
2017-08-08T06:50:42.971Z,55.90
2017-08-08T06:53:13.462Z,56.10
2017-08-08T06:55:42.817Z,56.10
2017-08-08T06:58:16.140Z,56.40
2017-08-08T07:00:53.980Z,56.70
2017-08-08T07:03:25.499Z,56.60
2017-08-08T07:05:54.777Z,56.90
2017-08-08T07:08:24.212Z,57.10
2017-08-08T07:10:53.475Z,57.20
2017-08-08T07:13:22.804Z,57.40
2017-08-08T07:15:52.095Z,57.10
2017-08-08T07:18:21.308Z,57.70
2017-08-08T07:20:50.552Z,57.90
2017-08-08T07:23:19.846Z,58.20
2017-08-08T07:25:49.129Z,58.00
2017-08-08T07:28:18.348Z,58.20
2017-08-08T07:30:47.703Z,58.20
2017-08-08T07:33:16.932Z,58.30
2017-08-08T07:35:46.248Z,58.60
2017-08-08T07:38:15.664Z,58.90
2017-08-08T07:40:45.049Z,59.30
2017-08-08T07:43:14.212Z,59.10
2017-08-08T07:45:43.343Z,59.20
2017-08-08T07:48:12.698Z,60.00
2017-08-08T07:50:41.774Z,59.50
2017-08-08T07:53:11.124Z,59.70
2017-08-08T07:55:41.635Z,59.60
2017-08-08T07:58:11.010Z,59.30
2017-08-08T08:00:40.331Z,59.60
2017-08-08T08:03:09.502Z,59.70
2017-08-08T08:05:38.728Z,60.30
2017-08-08T08:08:10.017Z,60.60
2017-08-08T08:10:42.537Z,60.90
2017-08-08T08:13:11.987Z,60.90
2017-08-08T08:15:41.268Z,61.00
2017-08-08T08:18:10.598Z,61.00
2017-08-08T08:20:39.746Z,61.00
2017-08-08T08:23:08.992Z,61.10
2017-08-08T08:25:39.033Z,61.10
2017-08-08T08:28:08.133Z,61.20
2017-08-08T08:30:37.445Z,61.40
2017-08-08T08:33:07.324Z,61.40
2017-08-08T08:35:36.524Z,61.80
2017-08-08T08:38:05.812Z,62.00
2017-08-08T08:40:34.811Z,62.00
2017-08-08T08:43:04.013Z,62.20
2017-08-08T08:45:33.924Z,62.10
2017-08-08T08:48:03.231Z,61.90
2017-08-08T08:50:40.400Z,63.50
2017-08-08T08:53:09.661Z,63.00
2017-08-08T08:55:38.933Z,63.30
2017-08-08T08:58:09.346Z,63.00
2017-08-08T09:00:39.392Z,62.60
2017-08-08T09:03:08.534Z,62.60
2017-08-08T09:05:37.897Z,63.00
2017-08-08T09:08:07.013Z,62.90
2017-08-08T09:10:36.259Z,63.20
2017-08-08T09:13:05.472Z,63.20
2017-08-08T09:15:34.764Z,63.20
2017-08-08T09:18:04.790Z,63.80
2017-08-08T09:20:33.922Z,63.80
2017-08-08T09:23:03.253Z,63.60
2017-08-08T09:25:32.449Z,63.90
2017-08-08T09:28:01.738Z,64.40
2017-08-08T09:30:31.021Z,64.20
2017-08-08T09:33:00.481Z,64.80
2017-08-08T09:35:30.559Z,64.90
2017-08-08T09:38:00.105Z,64.80
2017-08-08T09:40:29.176Z,64.60
2017-08-08T09:42:58.420Z,65.10
2017-08-08T09:45:27.818Z,65.30
2017-08-08T09:47:57.019Z,66.30
2017-08-08T09:50:26.455Z,66.20
2017-08-08T09:52:55.999Z,66.60
2017-08-08T09:55:25.677Z,66.40
2017-08-08T09:57:54.966Z,66.70
2017-08-08T10:00:25.216Z,67.10
2017-08-08T10:02:54.379Z,67.60
2017-08-08T10:05:23.583Z,68.00
2017-08-08T10:07:53.098Z,68.80
2017-08-08T10:10:22.376Z,69.30
2017-08-08T10:12:51.658Z,70.00
2017-08-08T10:15:21.206Z,70.60
2017-08-08T10:17:51.523Z,71.20
2017-08-08T10:20:20.898Z,71.10
2017-08-08T10:22:50.018Z,70.90
2017-08-08T10:25:19.644Z,71.00
2017-08-08T10:27:48.884Z,71.60
2017-08-08T10:30:18.191Z,72.20
2017-08-08T10:32:47.683Z,72.40
2017-08-08T10:35:17.558Z,72.60
2017-08-08T10:37:47.032Z,72.60
2017-08-08T10:40:16.540Z,73.20
2017-08-08T10:42:45.632Z,73.20
2017-08-08T10:45:15.102Z,73.40
2017-08-08T10:47:45.277Z,74.40
2017-08-08T10:50:14.727Z,73.70
2017-08-08T10:52:44.134Z,73.50
2017-08-08T10:55:13.317Z,73.20
2017-08-08T10:57:42.394Z,73.70
2017-08-08T11:00:11.752Z,73.70
2017-08-08T11:02:41.246Z,74.70
2017-08-08T11:05:10.527Z,74.60
2017-08-08T11:07:39.584Z,75.10
2017-08-08T11:10:09.055Z,75.20
2017-08-08T11:12:39.028Z,75.80
2017-08-08T11:15:08.491Z,75.90
2017-08-08T11:17:38.044Z,76.40
2017-08-08T11:20:07.383Z,76.30
2017-08-08T11:22:36.589Z,76.40
2017-08-08T11:25:05.772Z,75.70
2017-08-08T11:27:36.520Z,75.40
2017-08-08T11:30:05.968Z,75.30
2017-08-08T11:32:35.125Z,76.10
2017-08-08T11:35:04.928Z,76.20
2017-08-08T11:37:34.337Z,76.20
2017-08-08T11:40:03.363Z,75.90
2017-08-08T11:42:32.870Z,76.00
2017-08-08T11:45:02.434Z,76.20
2017-08-08T11:47:31.983Z,76.90
2017-08-08T11:50:01.798Z,76.60
2017-08-08T11:52:31.029Z,76.20
2017-08-08T11:55:00.755Z,76.40
2017-08-08T11:57:30.992Z,77.80
2017-08-08T12:00:00.901Z,79.00
2017-08-08T12:02:30.208Z,78.30
2017-08-08T12:04:59.924Z,79.40
2017-08-08T12:07:29.732Z,80.20
2017-08-08T12:09:59.014Z,80.20
2017-08-08T12:12:29.129Z,79.80
2017-08-08T12:14:58.852Z,81.80
2017-08-08T12:17:28.440Z,80.90
2017-08-08T12:19:58.364Z,82.10
2017-08-08T12:22:28.806Z,82.10
2017-08-08T12:24:58.365Z,82.00
2017-08-08T12:27:27.765Z,82.10
2017-08-08T12:29:57.355Z,83.80
2017-08-08T12:32:27.046Z,83.80
2017-08-08T12:34:56.559Z,83.30
2017-08-08T12:37:26.047Z,84.00
2017-08-08T12:39:55.196Z,83.50
2017-08-08T12:42:25.611Z,83.70
2017-08-08T12:44:55.187Z,83.70
2017-08-08T12:47:25.152Z,83.60
2017-08-08T12:49:54.855Z,82.70
2017-08-08T12:52:24.612Z,82.80
2017-08-08T12:54:54.157Z,83.10
2017-08-08T12:57:23.254Z,83.10
2017-08-08T12:59:52.495Z,84.00
2017-08-08T13:02:21.924Z,84.00
2017-08-08T13:04:51.235Z,84.70
2017-08-08T13:07:21.017Z,86.00
2017-08-08T13:09:50.439Z,86.10
2017-08-08T13:12:19.962Z,86.60
2017-08-08T13:14:49.361Z,88.00
2017-08-08T13:17:18.542Z,88.60
2017-08-08T13:19:48.283Z,89.20
2017-08-08T13:22:18.377Z,90.10
2017-08-08T13:24:47.690Z,90.10
2017-08-08T13:27:17.216Z,90.10
2017-08-08T13:29:46.479Z,90.70
2017-08-08T13:32:15.929Z,90.60
2017-08-08T13:34:45.319Z,90.70
2017-08-08T13:37:14.567Z,90.50
2017-08-08T13:39:44.174Z,90.30
2017-08-08T13:42:13.705Z,90.10
2017-08-08T13:44:43.023Z,90.00
2017-08-08T13:47:12.492Z,89.90
2017-08-08T13:49:41.831Z,89.80
2017-08-08T13:52:11.126Z,90.10
2017-08-08T13:54:40.311Z,89.90
2017-08-08T13:57:09.678Z,89.60
2017-08-08T13:59:39.015Z,88.90
2017-08-08T14:02:08.321Z,88.60
2017-08-08T14:04:37.506Z,87.70
2017-08-08T14:07:06.684Z,87.50
2017-08-08T14:09:37.530Z,87.40
2017-08-08T14:12:07.044Z,87.10
2017-08-08T14:14:36.344Z,87.20
2017-08-08T14:17:05.794Z,86.60
2017-08-08T14:19:35.076Z,86.30
2017-08-08T14:22:04.284Z,86.50
2017-08-08T14:24:33.532Z,85.70
2017-08-08T14:27:02.956Z,85.60
2017-08-08T14:29:32.291Z,84.40
2017-08-08T14:32:01.402Z,84.20
2017-08-08T14:34:30.564Z,84.60
2017-08-08T14:37:00.079Z,83.70
2017-08-08T14:39:29.406Z,83.50
2017-08-08T14:41:58.586Z,82.90
2017-08-08T14:44:27.981Z,82.80
2017-08-08T14:46:58.362Z,82.60
2017-08-08T14:49:27.500Z,82.80
2017-08-08T14:51:56.882Z,82.80
2017-08-08T14:54:26.422Z,82.80
2017-08-08T14:56:55.485Z,83.10
2017-08-08T14:59:24.605Z,81.80
2017-08-08T15:01:54.212Z,81.40
2017-08-08T15:04:23.411Z,82.90
2017-08-08T15:06:52.953Z,82.70
2017-08-08T15:09:22.154Z,82.70
2017-08-08T15:11:52.271Z,82.70
2017-08-08T15:14:21.524Z,83.40
2017-08-08T15:16:51.045Z,82.90
2017-08-08T15:19:20.298Z,83.40
2017-08-08T15:21:50.686Z,80.60
2017-08-08T15:24:20.118Z,80.50
2017-08-08T15:26:50.161Z,80.80
2017-08-08T15:29:19.448Z,80.80
2017-08-08T15:31:48.755Z,79.40
2017-08-08T15:34:17.995Z,78.20
2017-08-08T15:36:47.383Z,78.90
2017-08-08T15:39:16.827Z,78.10
2017-08-08T15:41:46.262Z,77.90
2017-08-08T15:44:15.539Z,76.90
2017-08-08T15:46:44.833Z,74.40
2017-08-08T15:49:13.916Z,74.70
2017-08-08T15:51:43.246Z,73.70
2017-08-08T15:54:12.698Z,73.80
2017-08-08T15:56:42.031Z,72.70
2017-08-08T15:59:11.141Z,72.90
2017-08-08T16:01:40.521Z,73.40
2017-08-08T16:04:09.854Z,72.10
2017-08-08T16:06:40.159Z,72.80
2017-08-08T16:09:09.458Z,72.80
2017-08-08T16:11:38.699Z,72.20
2017-08-08T16:14:08.853Z,73.60
2017-08-08T16:16:38.326Z,72.50
2017-08-08T16:19:07.664Z,71.30
2017-08-08T16:21:37.100Z,70.30
2017-08-08T16:24:07.520Z,69.80
2017-08-08T16:26:37.141Z,69.80
2017-08-08T16:29:06.729Z,69.00
2017-08-08T16:31:35.840Z,69.20
2017-08-08T16:34:06.891Z,69.00
2017-08-08T16:36:36.251Z,69.00
2017-08-08T16:39:05.572Z,67.30
2017-08-08T16:41:34.814Z,67.60
2017-08-08T16:44:04.274Z,67.50
2017-08-08T16:46:33.637Z,66.90
2017-08-08T16:49:03.227Z,66.60
2017-08-08T16:51:32.568Z,65.70
2017-08-08T16:54:02.242Z,60.70
2017-08-08T16:56:31.496Z,60.60
2017-08-08T16:59:00.891Z,61.90
2017-08-08T17:01:30.078Z,57.30
2017-08-08T17:03:59.382Z,55.30
2017-08-08T17:06:28.696Z,55.50
2017-08-08T17:08:58.197Z,55.50
2017-08-08T17:11:27.327Z,52.70
2017-08-08T17:13:56.652Z,52.50
2017-08-08T17:16:27.326Z,48.80
2017-08-08T17:18:57.456Z,47.00
2017-08-08T17:21:26.899Z,47.80
2017-08-08T17:23:56.594Z,43.90
2017-08-08T17:26:25.963Z,42.60
2017-08-08T17:28:55.374Z,37.30
2017-08-08T17:31:24.750Z,34.30
2017-08-08T17:33:57.087Z,32.90
2017-08-08T17:36:26.931Z,29.00
2017-08-08T17:38:56.144Z,28.50
2017-08-08T17:41:25.470Z,26.60
2017-08-08T17:43:54.735Z,25.20
2017-08-08T17:46:23.941Z,24.80
2017-08-08T17:48:53.290Z,23.00
2017-08-08T17:51:22.557Z,21.50
2017-08-08T17:53:51.678Z,21.70
2017-08-08T17:56:22.179Z,23.80
2017-08-08T17:58:52.200Z,25.10
2017-08-08T18:01:21.552Z,25.10
2017-08-08T18:03:50.684Z,25.70
2017-08-08T18:06:20.836Z,24.60
2017-08-08T18:08:51.072Z,26.90
2017-08-08T18:11:20.488Z,26.90
2017-08-08T18:13:49.728Z,26.20
2017-08-08T18:16:19.958Z,25.00
2017-08-08T18:18:50.071Z,24.30
2017-08-08T18:21:20.806Z,23.40
2017-08-08T18:23:50.251Z,22.20
2017-08-08T18:26:19.446Z,24.20
2017-08-08T18:28:49.131Z,25.50
2017-08-08T18:31:18.649Z,24.90
2017-08-08T18:33:49.477Z,25.20
2017-08-08T18:36:18.760Z,23.30
2017-08-08T18:38:48.193Z,23.00
2017-08-08T18:41:18.633Z,24.50
2017-08-08T18:43:48.051Z,23.10
2017-08-08T18:46:17.282Z,21.10
2017-08-08T18:48:46.812Z,21.00
2017-08-08T18:51:15.982Z,20.30
2017-08-08T18:53:50.144Z,20.30
2017-08-08T18:56:19.463Z,19.30
2017-08-08T18:58:48.764Z,20.50
2017-08-08T19:01:17.979Z,22.30
2017-08-08T19:03:47.267Z,21.40
2017-08-08T19:06:16.667Z,20.10
2017-08-08T19:08:46.289Z,20.20
2017-08-08T19:11:15.640Z,18.70
2017-08-08T19:13:44.978Z,18.20
2017-08-08T19:16:14.887Z,17.20
2017-08-08T19:18:44.868Z,16.30
2017-08-08T19:21:15.437Z,15.70
2017-08-08T19:23:44.743Z,15.40
2017-08-08T19:26:14.133Z,15.90
2017-08-08T19:28:44.179Z,17.20
2017-08-08T19:31:13.667Z,15.70
2017-08-08T19:33:42.926Z,16.60
2017-08-08T19:36:12.311Z,15.80
2017-08-08T19:38:41.388Z,16.90
2017-08-08T19:41:10.500Z,16.10
2017-08-08T19:43:39.885Z,15.90
2017-08-08T19:46:09.227Z,16.70
2017-08-08T19:48:38.442Z,17.40
2017-08-08T19:51:07.654Z,17.60
2017-08-08T19:53:37.046Z,16.20
2017-08-08T19:56:06.468Z,15.90
2017-08-08T19:58:35.439Z,15.00
2017-08-08T20:01:05.325Z,16.60
2017-08-08T20:03:34.623Z,16.50
2017-08-08T20:06:03.989Z,17.20
2017-08-08T20:08:33.150Z,18.50
2017-08-08T20:11:02.824Z,18.70
2017-08-08T20:13:32.362Z,21.00
2017-08-08T20:16:01.752Z,21.60
2017-08-08T20:18:31.084Z,22.10
2017-08-08T20:21:01.828Z,23.10
2017-08-08T20:23:32.471Z,23.70
2017-08-08T20:26:01.832Z,24.60
2017-08-08T20:28:31.104Z,24.40
2017-08-08T20:31:01.667Z,24.70
2017-08-08T20:33:31.975Z,25.70
2017-08-08T20:36:02.500Z,26.60
2017-08-08T20:38:31.929Z,26.00
2017-08-08T20:41:02.413Z,26.10
2017-08-08T20:43:31.867Z,26.00
2017-08-08T20:46:01.077Z,26.60
2017-08-08T20:48:30.730Z,28.90
2017-08-08T20:51:00.475Z,29.10
2017-08-08T20:53:29.703Z,28.20
2017-08-08T20:55:59.209Z,28.10
2017-08-08T20:58:28.384Z,28.50
2017-08-08T21:00:57.613Z,28.10
2017-08-08T21:03:28.309Z,28.00
2017-08-08T21:05:57.538Z,27.40
2017-08-08T21:08:26.625Z,27.70
2017-08-08T21:10:55.517Z,27.60
2017-08-08T21:13:24.514Z,27.20
2017-08-08T21:15:53.528Z,27.50
2017-08-08T21:18:24.292Z,26.90
2017-08-08T21:20:53.937Z,26.80
2017-08-08T21:23:23.428Z,27.00
2017-08-08T21:25:53.852Z,26.30
2017-08-08T21:28:23.117Z,26.00
2017-08-08T21:30:52.494Z,26.40
2017-08-08T21:33:22.569Z,26.90
2017-08-08T21:35:52.064Z,26.10
2017-08-08T21:38:21.163Z,25.10
2017-08-08T21:40:50.531Z,24.50
2017-08-08T21:43:19.679Z,24.40
2017-08-08T21:45:48.972Z,24.70
2017-08-08T21:48:18.207Z,23.80
2017-08-08T21:50:47.430Z,23.10
2017-08-08T21:53:16.827Z,21.80
2017-08-08T21:55:45.973Z,21.00
2017-08-08T21:58:15.394Z,21.60
2017-08-08T22:00:45.426Z,20.50
2017-08-08T22:03:14.651Z,20.50
2017-08-08T22:05:45.285Z,21.00
2017-08-08T22:08:15.170Z,21.30
2017-08-08T22:10:44.561Z,20.30
2017-08-08T22:13:14.081Z,21.20
2017-08-08T22:15:43.372Z,20.50
2017-08-08T22:18:12.610Z,20.50
2017-08-08T22:20:42.672Z,19.10
2017-08-08T22:23:12.125Z,19.90
2017-08-08T22:25:43.391Z,19.80
2017-08-08T22:28:14.094Z,20.20
2017-08-08T22:30:43.236Z,20.10
2017-08-08T22:33:12.750Z,20.40
2017-08-08T22:35:42.228Z,20.60
2017-08-08T22:38:18.446Z,20.10
2017-08-08T22:40:49.704Z,20.60
2017-08-08T22:43:20.387Z,20.60
2017-08-08T22:45:49.621Z,20.20
2017-08-08T22:48:18.814Z,21.00
2017-08-08T22:50:48.218Z,20.10
2017-08-08T22:53:18.426Z,21.40
2017-08-08T22:55:48.792Z,21.30
2017-08-08T22:58:18.068Z,21.30
2017-08-08T23:00:47.513Z,20.10
2017-08-08T23:03:16.655Z,20.40
2017-08-08T23:05:47.348Z,20.40
2017-08-08T23:08:16.774Z,20.40
2017-08-08T23:10:46.121Z,20.50
2017-08-08T23:13:15.562Z,20.60
2017-08-08T23:15:45.465Z,20.90
2017-08-08T23:18:14.911Z,20.90
2017-08-08T23:20:44.277Z,20.50
2017-08-08T23:23:13.443Z,19.80
2017-08-08T23:25:42.411Z,20.00
2017-08-08T23:28:12.754Z,20.10
2017-08-08T23:30:42.719Z,20.10
2017-08-08T23:33:11.860Z,20.20
2017-08-08T23:35:42.078Z,19.80
2017-08-08T23:38:12.207Z,19.80
2017-08-08T23:40:41.635Z,19.70
2017-08-08T23:43:10.919Z,19.80
2017-08-08T23:45:40.266Z,19.10
2017-08-08T23:48:09.491Z,18.90
2017-08-08T23:50:39.430Z,18.30
2017-08-08T23:53:09.324Z,17.90
2017-08-08T23:55:38.654Z,17.80
2017-08-08T23:58:07.975Z,18.20
